Terminal Aerodrome Forecast
Issued by NWS

Home | Current Version | Previous Version | Text Only | Print | Product List | Glossary On
Versions: 1 2 3 4 5 6 7 8 9 10 11 12 13
000
FTUS43 KGRB 041720
TAFMTW
TAF
KMTW 041720Z 0418/0518 09006KT P6SM SCT045 SCT250
     FM050100 16003KT P6SM FEW045
     FM050400 19003KT P6SM SKC
     FM051400 20008KT P6SM SCT040=

USA.gov is the U.S. government's official web portal to all federal, state and local government web resources and services.